createdAt,value
2022-11-26T00:00:31.345Z,102185.06
2022-11-26T00:03:03.340Z,102187.75
2022-11-26T00:05:35.288Z,102183.66
2022-11-26T00:08:16.283Z,102198.97
2022-11-26T00:10:52.630Z,102190.44
2022-11-26T00:13:28.061Z,102198.53
2022-11-26T00:16:00.033Z,102203.19
2022-11-26T00:18:31.926Z,102194.56
2022-11-26T00:21:04.235Z,102214.41
2022-11-26T00:23:36.124Z,102209.16
2022-11-26T00:26:14.107Z,102221.94
2022-11-26T00:28:57.698Z,102223.91
2022-11-26T00:31:29.687Z,102225.03
2022-11-26T00:34:01.696Z,102219.78
2022-11-26T00:36:33.655Z,102227.13
2022-11-26T00:39:15.923Z,102222.03
2022-11-26T00:41:51.845Z,102225.88
2022-11-26T00:44:25.342Z,102230.66
2022-11-26T00:46:57.202Z,102227.28
2022-11-26T00:49:29.354Z,102243.44
2022-11-26T00:52:01.189Z,102237.44
2022-11-26T00:54:33.342Z,102248.38
2022-11-26T00:57:05.192Z,102249.63
2022-11-26T00:59:37.080Z,102256.88
2022-11-26T01:02:09.480Z,102261.41
2022-11-26T01:04:41.503Z,102266.06
2022-11-26T01:07:13.350Z,102270.88
2022-11-26T01:09:46.606Z,102272.72
2022-11-26T01:12:18.515Z,102275.41
2022-11-26T01:14:50.390Z,102285.47
2022-11-26T01:17:22.223Z,102284.47
2022-11-26T01:19:54.128Z,102287.28
2022-11-26T01:22:25.954Z,102288.16
2022-11-26T01:24:57.815Z,102289.00
2022-11-26T01:27:29.716Z,102284.75
2022-11-26T01:30:01.681Z,102294.69
2022-11-26T01:32:33.600Z,102292.00
2022-11-26T01:35:06.210Z,102301.19
2022-11-26T01:37:38.057Z,102297.78
2022-11-26T01:40:25.246Z,102303.28
2022-11-26T01:43:00.425Z,102303.41
2022-11-26T01:45:32.627Z,102306.09
2022-11-26T01:48:32.106Z,102310.06
2022-11-26T01:51:08.871Z,102313.88
2022-11-26T01:53:56.780Z,102318.41
2022-11-26T01:56:58.420Z,102317.56
2022-11-26T01:59:33.710Z,102323.03
2022-11-26T02:02:06.151Z,102327.47
2022-11-26T02:04:57.801Z,102325.72
2022-11-26T02:07:29.982Z,102325.03
2022-11-26T02:10:01.914Z,102325.16
2022-11-26T02:12:34.270Z,102320.00
2022-11-26T02:15:06.717Z,102340.72
2022-11-26T02:17:55.673Z,102339.00
2022-11-26T02:20:45.507Z,102342.69
2022-11-26T02:23:32.379Z,102340.00
2022-11-26T02:26:23.090Z,102346.13
2022-11-26T02:29:13.089Z,102346.13
2022-11-26T02:31:53.330Z,102349.38
2022-11-26T02:34:37.475Z,102352.09
2022-11-26T02:37:15.454Z,102351.97
2022-11-26T02:39:48.038Z,102361.72
2022-11-26T02:42:29.808Z,102367.13
2022-11-26T02:45:07.564Z,102372.78
2022-11-26T02:47:41.499Z,102372.78
2022-11-26T02:50:18.618Z,102362.97
2022-11-26T02:52:51.782Z,102375.59
2022-11-26T02:55:26.615Z,102383.81
2022-11-26T02:57:58.832Z,102380.50
2022-11-26T03:00:32.287Z,102383.47
2022-11-26T03:03:22.931Z,102384.31
2022-11-26T03:05:58.600Z,102384.19
2022-11-26T03:08:31.914Z,102393.84
2022-11-26T03:11:04.757Z,102389.44
2022-11-26T03:13:36.710Z,102392.00
2022-11-26T03:16:08.675Z,102392.25
2022-11-26T03:18:40.749Z,102402.44
2022-11-26T03:21:12.674Z,102404.44
2022-11-26T03:23:45.287Z,102404.66
2022-11-26T03:26:17.314Z,102402.94
2022-11-26T03:28:49.140Z,102413.72
2022-11-26T03:31:21.184Z,102420.81
2022-11-26T03:33:53.255Z,102425.97
2022-11-26T03:36:25.246Z,102419.34
2022-11-26T03:38:57.082Z,102429.13
2022-11-26T03:41:28.945Z,102425.44
2022-11-26T03:44:01.169Z,102421.75
2022-11-26T03:46:33.080Z,102419.94
2022-11-26T03:49:05.280Z,102428.28
2022-11-26T03:51:37.184Z,102431.34
2022-11-26T03:54:09.724Z,102434.44
2022-11-26T03:56:41.668Z,102433.56
2022-11-26T03:59:14.042Z,102431.84
2022-11-26T04:01:46.217Z,102443.59
2022-11-26T04:04:18.229Z,102436.38
2022-11-26T04:06:50.252Z,102433.97
2022-11-26T04:09:22.347Z,102443.13
2022-11-26T04:11:54.228Z,102441.41
2022-11-26T04:14:26.207Z,102440.81
2022-11-26T04:16:58.140Z,102448.03
2022-11-26T04:19:30.434Z,102441.09
2022-11-26T04:22:02.309Z,102445.84
2022-11-26T04:24:34.126Z,102447.84
2022-11-26T04:27:06.211Z,102452.09
2022-11-26T04:29:38.919Z,102450.63
2022-11-26T04:32:10.954Z,102446.81
2022-11-26T04:34:43.040Z,102452.94
2022-11-26T04:37:14.972Z,102460.75
2022-11-26T04:39:46.837Z,102463.44
2022-11-26T04:42:18.887Z,102466.13
2022-11-26T04:44:50.768Z,102477.91
2022-11-26T04:47:22.666Z,102475.94
2022-11-26T04:49:54.451Z,102472.88
2022-11-26T04:52:26.303Z,102483.63
2022-11-26T04:54:58.148Z,102470.31
2022-11-26T04:57:30.130Z,102484.00
2022-11-26T05:00:02.026Z,102479.00
2022-11-26T05:02:33.935Z,102486.97
2022-11-26T05:05:06.203Z,102492.09
2022-11-26T05:07:38.188Z,102494.94
2022-11-26T05:10:10.994Z,102501.41
2022-11-26T05:12:43.329Z,102502.38
2022-11-26T05:15:15.206Z,102497.84
2022-11-26T05:17:47.032Z,102501.03
2022-11-26T05:20:18.944Z,102499.19
2022-11-26T05:22:50.923Z,102509.84
2022-11-26T05:25:22.739Z,102504.56
2022-11-26T05:27:54.543Z,102511.91
2022-11-26T05:30:26.388Z,102503.34
2022-11-26T05:32:59.501Z,102518.78
2022-11-26T05:35:31.432Z,102512.66
2022-11-26T05:38:03.275Z,102520.13
2022-11-26T05:40:35.540Z,102514.75
2022-11-26T05:43:07.431Z,102521.72
2022-11-26T05:45:39.615Z,102531.66
2022-11-26T05:48:11.572Z,102534.44
2022-11-26T05:50:43.431Z,102536.66
2022-11-26T05:53:16.851Z,102534.94
2022-11-26T05:55:48.703Z,102541.78
2022-11-26T05:58:20.549Z,102536.16
2022-11-26T06:00:52.918Z,102545.59
2022-11-26T06:03:24.874Z,102544.47
2022-11-26T06:05:56.828Z,102549.09
2022-11-26T06:08:28.687Z,102550.47
2022-11-26T06:11:00.737Z,102548.88
2022-11-26T06:13:32.714Z,102555.13
2022-11-26T06:16:04.833Z,102554.25
2022-11-26T06:18:37.895Z,102563.31
2022-11-26T06:21:10.699Z,102567.13
2022-11-26T06:23:50.594Z,102558.94
2022-11-26T06:26:24.888Z,102562.22
2022-11-26T06:28:57.023Z,102560.50
2022-11-26T06:31:28.868Z,102569.44
2022-11-26T06:34:00.768Z,102573.00
2022-11-26T06:36:32.683Z,102576.53
2022-11-26T06:39:04.571Z,102581.91
2022-11-26T06:41:36.594Z,102577.25
2022-11-26T06:44:08.613Z,102580.69
2022-11-26T06:46:40.602Z,102587.53
2022-11-26T06:49:12.471Z,102583.63
2022-11-26T06:51:44.363Z,102591.31
2022-11-26T06:54:16.209Z,102588.50
2022-11-26T06:56:48.203Z,102592.94
2022-11-26T06:59:20.279Z,102599.88
2022-11-26T07:01:52.400Z,102606.75
2022-11-26T07:04:24.417Z,102608.69
2022-11-26T07:06:56.416Z,102620.34
2022-11-26T07:09:28.313Z,102613.34
2022-11-26T07:12:00.142Z,102610.91
2022-11-26T07:14:32.211Z,102621.78
2022-11-26T07:17:04.086Z,102624.47
2022-11-26T07:19:35.966Z,102619.09
2022-11-26T07:22:07.824Z,102624.25
2022-11-26T07:24:40.127Z,102624.09
2022-11-26T07:27:12.153Z,102639.19
2022-11-26T07:29:44.083Z,102640.91
2022-11-26T07:32:16.052Z,102654.38
2022-11-26T07:34:47.887Z,102651.66
2022-11-26T07:37:19.765Z,102651.66
2022-11-26T07:39:51.580Z,102660.47
2022-11-26T07:42:23.501Z,102661.69
2022-11-26T07:44:55.463Z,102656.31
2022-11-26T07:47:27.415Z,102661.69
2022-11-26T07:49:59.546Z,102655.72
2022-11-26T07:52:31.343Z,102659.38
2022-11-26T07:55:06.874Z,102662.06
2022-11-26T07:57:41.432Z,102665.63
2022-11-26T08:00:13.862Z,102663.03
2022-11-26T08:02:45.726Z,102671.72
2022-11-26T08:05:17.927Z,102671.38
2022-11-26T08:07:49.853Z,102673.69
2022-11-26T08:10:21.805Z,102672.31
2022-11-26T08:12:53.667Z,102680.06
2022-11-26T08:15:25.554Z,102683.03
2022-11-26T08:17:57.410Z,102676.41
2022-11-26T08:20:29.465Z,102683.41
2022-11-26T08:23:01.495Z,102677.16
2022-11-26T08:25:33.498Z,102680.81
2022-11-26T08:28:05.419Z,102685.94
2022-11-26T08:30:37.342Z,102689.13
2022-11-26T08:33:09.207Z,102684.38
2022-11-26T08:36:05.512Z,102689.63
2022-11-26T08:38:33.016Z,102693.28
2022-11-26T08:41:07.537Z,102693.44
2022-11-26T08:44:05.142Z,102694.16
2022-11-26T08:46:32.299Z,102691.34
2022-11-26T08:49:04.888Z,102696.47
2022-11-26T08:51:36.770Z,102695.25
2022-11-26T08:54:08.865Z,102704.06
2022-11-26T08:56:40.790Z,102702.00
2022-11-26T08:59:12.718Z,102698.19
2022-11-26T09:01:44.656Z,102693.25
2022-11-26T09:04:16.671Z,102699.13
2022-11-26T09:06:48.515Z,102700.84
2022-11-26T09:09:20.494Z,102708.09
2022-11-26T09:11:57.506Z,102712.88
2022-11-26T09:14:34.407Z,102717.25
2022-11-26T09:17:07.305Z,102708.19
2022-11-26T09:19:39.362Z,102715.19
2022-11-26T09:22:11.465Z,102720.31
2022-11-26T09:24:43.508Z,102724.75
2022-11-26T09:27:15.445Z,102723.38
2022-11-26T09:29:47.287Z,102718.59
2022-11-26T09:32:25.323Z,102716.47
2022-11-26T09:34:58.114Z,102728.28
2022-11-26T09:37:31.453Z,102730.97
2022-11-26T09:40:03.516Z,102731.94
2022-11-26T09:42:42.626Z,102734.66
2022-11-26T09:45:32.434Z,102740.16
2022-11-26T09:48:05.296Z,102743.44
2022-11-26T09:50:38.533Z,102753.84
2022-11-26T09:53:20.425Z,102748.34
2022-11-26T09:55:53.683Z,102757.56
2022-11-26T09:58:49.115Z,102751.44
2022-11-26T10:01:22.627Z,102750.09
2022-11-26T10:03:54.837Z,102750.09
2022-11-26T10:06:42.974Z,102742.97
2022-11-26T10:09:33.103Z,102755.97
2022-11-26T10:12:26.106Z,102763.34
2022-11-26T10:15:18.124Z,102769.97
2022-11-26T10:18:15.497Z,102766.28
2022-11-26T10:21:26.938Z,102757.22
2022-11-26T10:24:17.481Z,102759.41
2022-11-26T10:26:49.706Z,102756.22
2022-11-26T10:29:35.348Z,102763.81
2022-11-26T10:32:18.878Z,102773.09
2022-11-26T10:34:52.824Z,102763.91
2022-11-26T10:37:26.855Z,102772.47
2022-11-26T10:40:27.744Z,102766.47
2022-11-26T10:43:08.647Z,102778.50
2022-11-26T10:45:45.569Z,102779.72
2022-11-26T10:48:28.724Z,102789.06
2022-11-26T10:51:28.555Z,102783.19
2022-11-26T10:54:03.310Z,102783.31
2022-11-26T10:56:39.183Z,102783.66
2022-11-26T10:59:20.127Z,102788.56
2022-11-26T11:01:56.295Z,102786.09
2022-11-26T11:04:31.904Z,102782.16
2022-11-26T11:07:08.707Z,102789.38
2022-11-26T11:09:43.594Z,102786.09
2022-11-26T11:12:20.274Z,102777.25
2022-11-26T11:14:52.854Z,102783.28
2022-11-26T11:17:36.451Z,102785.22
2022-11-26T11:20:17.495Z,102786.59
2022-11-26T11:22:57.907Z,102790.53
2022-11-26T11:25:34.915Z,102779.00
2022-11-26T11:28:12.823Z,102796.19
2022-11-26T11:30:46.106Z,102803.25
2022-11-26T11:33:23.860Z,102792.47
2022-11-26T11:35:58.924Z,102797.88
2022-11-26T11:38:34.426Z,102797.63
2022-11-26T11:41:19.172Z,102790.13
2022-11-26T11:43:56.962Z,102790.03
2022-11-26T11:46:31.748Z,102793.69
2022-11-26T11:49:22.170Z,102799.09
2022-11-26T11:52:15.236Z,102795.66
2022-11-26T11:55:00.032Z,102791.88
2022-11-26T11:57:56.367Z,102798.59
2022-11-26T12:00:49.851Z,102798.59
2022-11-26T12:03:33.911Z,102793.91
2022-11-26T12:06:08.670Z,102794.88
2022-11-26T12:08:50.965Z,102791.00
2022-11-26T12:11:38.628Z,102797.94
2022-11-26T12:14:19.747Z,102785.81
2022-11-26T12:16:57.391Z,102786.16
2022-11-26T12:19:42.475Z,102783.47
2022-11-26T12:22:22.593Z,102784.56
2022-11-26T12:24:57.489Z,102790.94
2022-11-26T12:27:43.639Z,102786.28
2022-11-26T12:30:19.733Z,102779.16
2022-11-26T12:33:04.977Z,102779.91
2022-11-26T12:35:40.246Z,102777.72
2022-11-26T12:38:28.849Z,102778.97
2022-11-26T12:41:07.715Z,102782.50
2022-11-26T12:43:51.851Z,102783.22
2022-11-26T12:46:39.792Z,102779.91
2022-11-26T12:49:32.904Z,102773.00
2022-11-26T12:52:13.893Z,102780.00
2022-11-26T12:55:13.077Z,102786.09
2022-11-26T12:57:50.031Z,102793.22
2022-11-26T13:00:35.686Z,102790.91
2022-11-26T13:03:14.451Z,102796.56
2022-11-26T13:06:05.096Z,102794.84
2022-11-26T13:09:01.478Z,102788.34
2022-11-26T13:11:40.342Z,102785.78
2022-11-26T13:14:20.832Z,102782.97
2022-11-26T13:17:15.028Z,102785.50
2022-11-26T13:19:46.905Z,102783.78
2022-11-26T13:22:46.695Z,102778.66
2022-11-26T13:25:43.445Z,102777.91
2022-11-26T13:28:58.438Z,102780.78
2022-11-26T13:31:49.881Z,102783.47
2022-11-26T13:34:21.752Z,102781.88
2022-11-26T13:37:12.170Z,102784.56
2022-11-26T13:39:53.230Z,102769.13
2022-11-26T13:42:25.073Z,102767.88
2022-11-26T13:45:26.374Z,102768.72
2022-11-26T13:48:14.447Z,102769.31
2022-11-26T13:50:53.827Z,102766.22
2022-11-26T13:53:34.587Z,102772.09
2022-11-26T13:56:07.705Z,102773.44
2022-11-26T13:58:50.249Z,102767.53
2022-11-26T14:01:36.911Z,102763.56
2022-11-26T14:04:14.457Z,102768.13
2022-11-26T14:07:04.762Z,102762.72
2022-11-26T14:09:42.724Z,102756.59
2022-11-26T14:12:19.584Z,102763.97
2022-11-26T14:14:51.627Z,102764.09
2022-11-26T14:17:32.506Z,102774.88
2022-11-26T14:20:07.541Z,102777.84
2022-11-26T14:22:40.024Z,102779.81
2022-11-26T14:25:12.679Z,102779.81
2022-11-26T14:27:55.032Z,102789.91
2022-11-26T14:30:27.967Z,102783.16
2022-11-26T14:33:05.539Z,102784.25
2022-11-26T14:35:38.980Z,102790.69
